Egmondgracht — PDWG — position and weather

sailwx.info

Track history (hours):
 
Tides and Currents Weather Stations Pressure Air Temp Water Temp Dewpoint Dewpoint Depression Visibility Wind Speed Wind Dir Waves Ship Positions

Egmondgracht

Last reported at 2016-Jul-26 00:33 UTC. Time now 2016-Jul-26 00:39 UTC.
Position N 28°08' W 015°25'.

Length 136 m; beam 19 m; draft 9 m.

Type: Cargo ship. MMSI: 245716000.

Date/timePositionNaut miles runAvg speedWind from/ knotsBaromVisibWave heightAir tempDewpointWater temp
2016-Jul-26 00:33N 28°08' W 015°25'0 0.1
2016-Jul-25 23:32N 28°08' W 015°25'0 0.0
2016-Jul-25 22:32N 28°08' W 015°25'0 0.0
2016-Jul-25 21:32N 28°08' W 015°25'0 0.0
2016-Jul-25 20:32N 28°08' W 015°25'0 0.0
2016-Jul-25 19:32N 28°08' W 015°25'0 0.0
2016-Jul-25 18:32N 28°08' W 015°25'0 0.0
2016-Jul-25 17:32N 28°08' W 015°25'0 0.0
2016-Jul-25 16:32N 28°08' W 015°25'0 0.0
2016-Jul-25 15:32N 28°08' W 015°25'0 0.0
2016-Jul-25 14:32N 28°08' W 015°25'0 0.0
2016-Jul-25 13:32N 28°08' W 015°25'0 0.0
2016-Jul-25 12:32N 28°08' W 015°25'0 0.0
2016-Jul-25 11:32N 28°08' W 015°25'0 0.0
2016-Jul-25 10:26N 28°08' W 015°25'0 0.3
2016-Jul-25 09:33N 28°08' W 015°25'4 4.1
2016-Jul-25 08:33N 28°07' W 015°21'3 3.4
2016-Jul-25 07:33N 28°09' W 015°18'1110.7
2016-Jul-25 06:33N 28°20' W 015°18'1110.9
2016-Jul-25 05:33N 28°30' W 015°19'9 9.2
2016-Jul-25 04:33N 28°40' W 015°19'2 2.3
2016-Jul-25 03:33N 28°38' W 015°17'1010.0
2016-Jul-25 02:33N 28°40' W 015°29'1010.3
2016-Jul-25 01:34N 28°44' W 015°39'1110.4
2016-Jul-25 00:28N 28°48' W 015°52'1010.6
2016-Jul-24 23:33N 28°51' W 016°02'1110.3
2016-Jul-24 22:28N 28°54' W 016°14'1010.4
2016-Jul-24 21:32N 28°57' W 016°25'1010.3
2016-Jul-24 20:33N 28°60' W 016°36'1210.1
2016-Jul-24 19:20N 29°04' W 016°49'  
Track history (hours):
 
Tides and Currents Weather Stations Pressure Air Temp Water Temp Dewpoint Dewpoint Depression Visibility Wind Speed Wind Dir Waves Ship Positions

Egmondgracht

Last reported at 2016-Jul-26 00:33 UTC. Time now 2016-Jul-26 00:39 UTC.
Position N 28°08' W 015°25'.

Length 136 m; beam 19 m; draft 9 m.

Type: Cargo ship. MMSI: 245716000.

Date/timePositionNaut miles runAvg speedWind from/ knotsBaromVisibWave heightAir tempDewpointWater temp
2016-Jul-26 00:33N 28°08' W 015°25'0 0.1
2016-Jul-25 23:32N 28°08' W 015°25'0 0.0
2016-Jul-25 22:32N 28°08' W 015°25'0 0.0
2016-Jul-25 21:32N 28°08' W 015°25'0 0.0
2016-Jul-25 20:32N 28°08' W 015°25'0 0.0
2016-Jul-25 19:32N 28°08' W 015°25'0 0.0
2016-Jul-25 18:32N 28°08' W 015°25'0 0.0
2016-Jul-25 17:32N 28°08' W 015°25'0 0.0
2016-Jul-25 16:32N 28°08' W 015°25'0 0.0
2016-Jul-25 15:32N 28°08' W 015°25'0 0.0
2016-Jul-25 14:32N 28°08' W 015°25'0 0.0
2016-Jul-25 13:32N 28°08' W 015°25'0 0.0
2016-Jul-25 12:32N 28°08' W 015°25'0 0.0
2016-Jul-25 11:32N 28°08' W 015°25'0 0.0
2016-Jul-25 10:26N 28°08' W 015°25'0 0.3
2016-Jul-25 09:33N 28°08' W 015°25'4 4.1
2016-Jul-25 08:33N 28°07' W 015°21'3 3.4
2016-Jul-25 07:33N 28°09' W 015°18'1110.7
2016-Jul-25 06:33N 28°20' W 015°18'1110.9
2016-Jul-25 05:33N 28°30' W 015°19'9 9.2
2016-Jul-25 04:33N 28°40' W 015°19'2 2.3
2016-Jul-25 03:33N 28°38' W 015°17'1010.0
2016-Jul-25 02:33N 28°40' W 015°29'1010.3
2016-Jul-25 01:34N 28°44' W 015°39'1110.4
2016-Jul-25 00:28N 28°48' W 015°52'1010.6
2016-Jul-24 23:33N 28°51' W 016°02'1110.3
2016-Jul-24 22:28N 28°54' W 016°14'1010.4
2016-Jul-24 21:32N 28°57' W 016°25'1010.3
2016-Jul-24 20:33N 28°60' W 016°36'1210.1
2016-Jul-24 19:20N 29°04' W 016°49'  

Dump ship's entire track history